sensor_id;sensor_type;location;lat;lon;timestamp;P1;durP1;ratioP1;P2;durP2;ratioP2
7255;SDS011;3669;49.200;9.242;2023-08-17T00:01:32;3.00;;;2.80;;
7255;SDS011;3669;49.200;9.242;2023-08-17T00:03:59;3.28;;;3.03;;
7255;SDS011;3669;49.200;9.242;2023-08-17T00:06:44;3.80;;;3.10;;
7255;SDS011;3669;49.200;9.242;2023-08-17T00:09:12;3.30;;;3.00;;
7255;SDS011;3669;49.200;9.242;2023-08-17T00:11:39;4.15;;;3.30;;
7255;SDS011;3669;49.200;9.242;2023-08-17T00:14:06;3.20;;;2.90;;
7255;SDS011;3669;49.200;9.242;2023-08-17T00:16:33;3.20;;;2.92;;
7255;SDS011;3669;49.200;9.242;2023-08-17T00:19:01;3.78;;;3.13;;
7255;SDS011;3669;49.200;9.242;2023-08-17T00:21:28;3.83;;;2.90;;
7255;SDS011;3669;49.200;9.242;2023-08-17T00:23:55;3.60;;;3.30;;
7255;SDS011;3669;49.200;9.242;2023-08-17T00:26:23;3.47;;;2.85;;
7255;SDS011;3669;49.200;9.242;2023-08-17T00:28:51;4.55;;;3.00;;
7255;SDS011;3669;49.200;9.242;2023-08-17T00:31:18;4.10;;;3.33;;
7255;SDS011;3669;49.200;9.242;2023-08-17T00:33:45;4.22;;;2.78;;
7255;SDS011;3669;49.200;9.242;2023-08-17T00:36:13;3.25;;;2.80;;
7255;SDS011;3669;49.200;9.242;2023-08-17T00:38:43;2.78;;;2.58;;
7255;SDS011;3669;49.200;9.242;2023-08-17T00:41:10;2.88;;;2.63;;
7255;SDS011;3669;49.200;9.242;2023-08-17T00:43:37;3.00;;;2.70;;
7255;SDS011;3669;49.200;9.242;2023-08-17T00:46:04;3.95;;;2.65;;
7255;SDS011;3669;49.200;9.242;2023-08-17T00:48:31;2.97;;;2.40;;
7255;SDS011;3669;49.200;9.242;2023-08-17T00:50:59;3.00;;;2.33;;
7255;SDS011;3669;49.200;9.242;2023-08-17T00:53:27;3.38;;;2.42;;
7255;SDS011;3669;49.200;9.242;2023-08-17T00:55:56;2.70;;;2.50;;
7255;SDS011;3669;49.200;9.242;2023-08-17T00:58:24;2.80;;;2.25;;
7255;SDS011;3669;49.200;9.242;2023-08-17T01:00:51;3.22;;;2.28;;
7255;SDS011;3669;49.200;9.242;2023-08-17T01:03:17;10.52;;;9.98;;
7255;SDS011;3669;49.200;9.242;2023-08-17T01:05:45;2.45;;;2.25;;
7255;SDS011;3669;49.200;9.242;2023-08-17T01:08:12;2.85;;;2.30;;
7255;SDS011;3669;49.200;9.242;2023-08-17T01:13:11;2.05;;;1.90;;
7255;SDS011;3669;49.200;9.242;2023-08-17T01:15:42;4.00;;;2.38;;
7255;SDS011;3669;49.200;9.242;2023-08-17T01:20:44;2.25;;;2.05;;
7255;SDS011;3669;49.200;9.242;2023-08-17T01:23:11;3.40;;;2.28;;
7255;SDS011;3669;49.200;9.242;2023-08-17T01:25:38;2.80;;;2.50;;
7255;SDS011;3669;49.200;9.242;2023-08-17T01:28:05;2.55;;;2.17;;
7255;SDS011;3669;49.200;9.242;2023-08-17T01:30:33;11.23;;;10.63;;
7255;SDS011;3669;49.200;9.242;2023-08-17T01:33:06;29.48;;;28.15;;
7255;SDS011;3669;49.200;9.242;2023-08-17T01:38:21;22.40;;;21.35;;
7255;SDS011;3669;49.200;9.242;2023-08-17T01:40:48;26.42;;;25.20;;
7255;SDS011;3669;49.200;9.242;2023-08-17T01:43:16;21.02;;;20.08;;
7255;SDS011;3669;49.200;9.242;2023-08-17T01:45:43;19.48;;;18.42;;
7255;SDS011;3669;49.200;9.242;2023-08-17T01:48:10;13.20;;;12.57;;
7255;SDS011;3669;49.200;9.242;2023-08-17T01:50:37;6.70;;;6.22;;
7255;SDS011;3669;49.200;9.242;2023-08-17T01:53:03;2.33;;;2.13;;
7255;SDS011;3669;49.200;9.242;2023-08-17T01:55:30;2.40;;;2.20;;
7255;SDS011;3669;49.200;9.242;2023-08-17T01:57:57;2.67;;;1.90;;
7255;SDS011;3669;49.200;9.242;2023-08-17T02:00:24;2.50;;;1.88;;
7255;SDS011;3669;49.200;9.242;2023-08-17T02:02:51;3.30;;;2.30;;
7255;SDS011;3669;49.200;9.242;2023-08-17T02:05:19;1.85;;;1.73;;
7255;SDS011;3669;49.200;9.242;2023-08-17T02:07:46;2.47;;;2.17;;
7255;SDS011;3669;49.200;9.242;2023-08-17T02:10:31;2.17;;;1.98;;
7255;SDS011;3669;49.200;9.242;2023-08-17T02:12:58;2.63;;;2.30;;
7255;SDS011;3669;49.200;9.242;2023-08-17T02:15:25;3.22;;;2.00;;
7255;SDS011;3669;49.200;9.242;2023-08-17T02:17:52;2.15;;;1.95;;
7255;SDS011;3669;49.200;9.242;2023-08-17T02:20:19;4.25;;;2.50;;
7255;SDS011;3669;49.200;9.242;2023-08-17T02:22:46;2.28;;;2.00;;
7255;SDS011;3669;49.200;9.242;2023-08-17T02:25:13;3.05;;;1.92;;
7255;SDS011;3669;49.200;9.242;2023-08-17T02:27:40;2.40;;;2.10;;
7255;SDS011;3669;49.200;9.242;2023-08-17T02:30:08;2.28;;;2.08;;
7255;SDS011;3669;49.200;9.242;2023-08-17T02:32:35;2.95;;;2.10;;
7255;SDS011;3669;49.200;9.242;2023-08-17T02:35:02;3.30;;;2.25;;
7255;SDS011;3669;49.200;9.242;2023-08-17T02:37:29;2.63;;;2.00;;
7255;SDS011;3669;49.200;9.242;2023-08-17T02:39:56;2.33;;;2.00;;
7255;SDS011;3669;49.200;9.242;2023-08-17T02:42:23;3.17;;;2.13;;
7255;SDS011;3669;49.200;9.242;2023-08-17T02:44:51;2.35;;;2.08;;
7255;SDS011;3669;49.200;9.242;2023-08-17T02:47:18;2.55;;;2.08;;
7255;SDS011;3669;49.200;9.242;2023-08-17T02:49:45;3.47;;;2.15;;
7255;SDS011;3669;49.200;9.242;2023-08-17T02:52:15;2.30;;;2.10;;
7255;SDS011;3669;49.200;9.242;2023-08-17T02:54:42;2.30;;;2.10;;
7255;SDS011;3669;49.200;9.242;2023-08-17T02:57:09;2.58;;;1.90;;
7255;SDS011;3669;49.200;9.242;2023-08-17T02:59:36;2.47;;;1.98;;
7255;SDS011;3669;49.200;9.242;2023-08-17T03:02:03;2.70;;;1.80;;
7255;SDS011;3669;49.200;9.242;2023-08-17T03:04:30;10.38;;;9.75;;
7255;SDS011;3669;49.200;9.242;2023-08-17T03:06:58;2.40;;;2.20;;
7255;SDS011;3669;49.200;9.242;2023-08-17T03:09:25;2.20;;;2.00;;
7255;SDS011;3669;49.200;9.242;2023-08-17T03:11:52;2.58;;;2.25;;
7255;SDS011;3669;49.200;9.242;2023-08-17T03:14:19;2.40;;;2.05;;
7255;SDS011;3669;49.200;9.242;2023-08-17T03:16:46;2.58;;;2.20;;
7255;SDS011;3669;49.200;9.242;2023-08-17T03:19:14;2.22;;;2.03;;
7255;SDS011;3669;49.200;9.242;2023-08-17T03:21:41;2.25;;;2.05;;
7255;SDS011;3669;49.200;9.242;2023-08-17T03:24:08;2.05;;;1.73;;
7255;SDS011;3669;49.200;9.242;2023-08-17T03:26:35;2.65;;;1.88;;
7255;SDS011;3669;49.200;9.242;2023-08-17T03:29:02;1.92;;;1.80;;
7255;SDS011;3669;49.200;9.242;2023-08-17T03:31:29;2.85;;;2.05;;
7255;SDS011;3669;49.200;9.242;2023-08-17T03:33:56;2.05;;;1.80;;
7255;SDS011;3669;49.200;9.242;2023-08-17T03:36:25;1.90;;;1.75;;
7255;SDS011;3669;49.200;9.242;2023-08-17T03:38:52;4.13;;;2.28;;
7255;SDS011;3669;49.200;9.242;2023-08-17T03:41:19;1.98;;;1.83;;
7255;SDS011;3669;49.200;9.242;2023-08-17T03:43:46;2.00;;;1.80;;
7255;SDS011;3669;49.200;9.242;2023-08-17T03:46:13;2.50;;;1.90;;
7255;SDS011;3669;49.200;9.242;2023-08-17T03:48:40;3.15;;;2.10;;
7255;SDS011;3669;49.200;9.242;2023-08-17T03:51:07;2.17;;;1.98;;
7255;SDS011;3669;49.200;9.242;2023-08-17T03:53:38;2.22;;;2.00;;
7255;SDS011;3669;49.200;9.242;2023-08-17T03:56:05;2.33;;;2.00;;
7255;SDS011;3669;49.200;9.242;2023-08-17T03:58:32;2.10;;;1.90;;
7255;SDS011;3669;49.200;9.242;2023-08-17T04:01:00;1.73;;;1.60;;
7255;SDS011;3669;49.200;9.242;2023-08-17T04:03:27;12.60;;;11.88;;
7255;SDS011;3669;49.200;9.242;2023-08-17T04:05:54;12.00;;;11.27;;
7255;SDS011;3669;49.200;9.242;2023-08-17T04:08:21;18.40;;;17.30;;
7255;SDS011;3669;49.200;9.242;2023-08-17T04:10:48;20.63;;;19.63;;
7255;SDS011;3669;49.200;9.242;2023-08-17T04:13:15;15.30;;;14.55;;
7255;SDS011;3669;49.200;9.242;2023-08-17T04:15:42;29.48;;;28.08;;
7255;SDS011;3669;49.200;9.242;2023-08-17T04:18:09;16.67;;;15.73;;
7255;SDS011;3669;49.200;9.242;2023-08-17T04:20:36;10.18;;;9.63;;
7255;SDS011;3669;49.200;9.242;2023-08-17T04:25:30;2.17;;;1.95;;
7255;SDS011;3669;49.200;9.242;2023-08-17T04:27:57;2.05;;;1.85;;
7255;SDS011;3669;49.200;9.242;2023-08-17T04:30:24;2.15;;;1.95;;
7255;SDS011;3669;49.200;9.242;2023-08-17T04:32:51;2.15;;;1.95;;
7255;SDS011;3669;49.200;9.242;2023-08-17T04:35:19;2.75;;;1.92;;
7255;SDS011;3669;49.200;9.242;2023-08-17T04:37:46;2.35;;;1.80;;
7255;SDS011;3669;49.200;9.242;2023-08-17T04:40:13;1.95;;;1.85;;
7255;SDS011;3669;49.200;9.242;2023-08-17T04:42:40;2.20;;;2.00;;
7255;SDS011;3669;49.200;9.242;2023-08-17T04:45:07;1.77;;;1.65;;
7255;SDS011;3669;49.200;9.242;2023-08-17T04:47:35;3.03;;;1.80;;
7255;SDS011;3669;49.200;9.242;2023-08-17T04:50:02;2.20;;;2.00;;
7255;SDS011;3669;49.200;9.242;2023-08-17T04:52:29;2.20;;;2.00;;
7255;SDS011;3669;49.200;9.242;2023-08-17T04:54:56;1.80;;;1.70;;
7255;SDS011;3669;49.200;9.242;2023-08-17T04:57:23;1.65;;;1.55;;
7255;SDS011;3669;49.200;9.242;2023-08-17T04:59:51;2.28;;;1.90;;
7255;SDS011;3669;49.200;9.242;2023-08-17T05:02:19;1.75;;;1.65;;
7255;SDS011;3669;49.200;9.242;2023-08-17T05:04:46;2.65;;;1.80;;
7255;SDS011;3669;49.200;9.242;2023-08-17T05:07:13;2.00;;;1.85;;
7255;SDS011;3669;49.200;9.242;2023-08-17T05:09:40;2.25;;;1.95;;
7255;SDS011;3669;49.200;9.242;2023-08-17T05:12:07;2.03;;;1.90;;
7255;SDS011;3669;49.200;9.242;2023-08-17T05:14:34;2.45;;;2.08;;
7255;SDS011;3669;49.200;9.242;2023-08-17T05:17:01;1.98;;;1.85;;
7255;SDS011;3669;49.200;9.242;2023-08-17T05:19:29;1.77;;;1.67;;
7255;SDS011;3669;49.200;9.242;2023-08-17T05:21:56;1.90;;;1.80;;
7255;SDS011;3669;49.200;9.242;2023-08-17T05:24:23;2.28;;;1.92;;
7255;SDS011;3669;49.200;9.242;2023-08-17T05:26:50;2.00;;;1.80;;
7255;SDS011;3669;49.200;9.242;2023-08-17T05:29:17;2.22;;;1.83;;
7255;SDS011;3669;49.200;9.242;2023-08-17T05:31:44;2.30;;;2.10;;
7255;SDS011;3669;49.200;9.242;2023-08-17T05:34:11;3.20;;;2.13;;
7255;SDS011;3669;49.200;9.242;2023-08-17T05:36:39;2.05;;;1.80;;
7255;SDS011;3669;49.200;9.242;2023-08-17T05:39:06;2.17;;;1.98;;
7255;SDS011;3669;49.200;9.242;2023-08-17T05:41:33;2.60;;;1.63;;
7255;SDS011;3669;49.200;9.242;2023-08-17T05:44:00;1.85;;;1.70;;
7255;SDS011;3669;49.200;9.242;2023-08-17T05:46:28;2.00;;;1.80;;
7255;SDS011;3669;49.200;9.242;2023-08-17T05:48:55;1.92;;;1.80;;
7255;SDS011;3669;49.200;9.242;2023-08-17T05:51:22;1.95;;;1.77;;
7255;SDS011;3669;49.200;9.242;2023-08-17T05:53:48;2.00;;;1.90;;
7255;SDS011;3669;49.200;9.242;2023-08-17T05:56:15;2.05;;;1.85;;
7255;SDS011;3669;49.200;9.242;2023-08-17T05:58:43;2.22;;;1.90;;
7255;SDS011;3669;49.200;9.242;2023-08-17T06:01:10;2.10;;;1.90;;
7255;SDS011;3669;49.200;9.242;2023-08-17T06:03:37;2.83;;;2.22;;
7255;SDS011;3669;49.200;9.242;2023-08-17T06:06:04;2.30;;;2.10;;
7255;SDS011;3669;49.200;9.242;2023-08-17T06:08:31;2.60;;;2.40;;
7255;SDS011;3669;49.200;9.242;2023-08-17T06:10:58;9.27;;;8.68;;
7255;SDS011;3669;49.200;9.242;2023-08-17T06:13:25;17.58;;;16.58;;
7255;SDS011;3669;49.200;9.242;2023-08-17T06:15:52;20.50;;;19.40;;
7255;SDS011;3669;49.200;9.242;2023-08-17T06:18:20;23.15;;;22.05;;
7255;SDS011;3669;49.200;9.242;2023-08-17T06:20:47;21.67;;;20.45;;
7255;SDS011;3669;49.200;9.242;2023-08-17T06:23:16;24.50;;;23.30;;
7255;SDS011;3669;49.200;9.242;2023-08-17T06:25:43;20.00;;;18.98;;
7255;SDS011;3669;49.200;9.242;2023-08-17T06:28:10;15.77;;;14.98;;
7255;SDS011;3669;49.200;9.242;2023-08-17T06:30:37;7.55;;;7.05;;
7255;SDS011;3669;49.200;9.242;2023-08-17T06:33:03;3.08;;;2.85;;
7255;SDS011;3669;49.200;9.242;2023-08-17T06:35:30;2.53;;;2.33;;
7255;SDS011;3669;49.200;9.242;2023-08-17T06:37:57;2.55;;;2.28;;
7255;SDS011;3669;49.200;9.242;2023-08-17T06:40:24;2.80;;;2.60;;
7255;SDS011;3669;49.200;9.242;2023-08-17T06:42:51;2.88;;;2.30;;
7255;SDS011;3669;49.200;9.242;2023-08-17T06:45:20;3.80;;;2.45;;
7255;SDS011;3669;49.200;9.242;2023-08-17T06:47:48;3.13;;;2.42;;
7255;SDS011;3669;49.200;9.242;2023-08-17T06:50:15;2.53;;;2.30;;
7255;SDS011;3669;49.200;9.242;2023-08-17T06:52:42;2.38;;;2.17;;
7255;SDS011;3669;49.200;9.242;2023-08-17T06:55:09;2.58;;;2.03;;
7255;SDS011;3669;49.200;9.242;2023-08-17T06:57:36;2.40;;;2.20;;
7255;SDS011;3669;49.200;9.242;2023-08-17T07:00:03;2.95;;;2.10;;
7255;SDS011;3669;49.200;9.242;2023-08-17T07:02:33;2.42;;;1.90;;
7255;SDS011;3669;49.200;9.242;2023-08-17T07:05:00;2.70;;;2.25;;
7255;SDS011;3669;49.200;9.242;2023-08-17T07:07:29;2.17;;;2.00;;
7255;SDS011;3669;49.200;9.242;2023-08-17T07:10:00;2.58;;;2.00;;
7255;SDS011;3669;49.200;9.242;2023-08-17T07:12:27;2.25;;;1.90;;
7255;SDS011;3669;49.200;9.242;2023-08-17T07:14:54;2.15;;;1.95;;
7255;SDS011;3669;49.200;9.242;2023-08-17T07:17:21;3.55;;;2.20;;
7255;SDS011;3669;49.200;9.242;2023-08-17T07:19:48;2.55;;;2.30;;
7255;SDS011;3669;49.200;9.242;2023-08-17T07:22:15;3.85;;;2.65;;
7255;SDS011;3669;49.200;9.242;2023-08-17T07:24:48;2.88;;;2.22;;
7255;SDS011;3669;49.200;9.242;2023-08-17T07:27:15;2.58;;;2.30;;
7255;SDS011;3669;49.200;9.242;2023-08-17T07:29:42;2.70;;;2.50;;
7255;SDS011;3669;49.200;9.242;2023-08-17T07:32:09;3.65;;;2.50;;
7255;SDS011;3669;49.200;9.242;2023-08-17T07:34:36;3.20;;;2.65;;
7255;SDS011;3669;49.200;9.242;2023-08-17T07:37:06;3.17;;;2.88;;
7255;SDS011;3669;49.200;9.242;2023-08-17T07:39:34;3.83;;;2.70;;
7255;SDS011;3669;49.200;9.242;2023-08-17T07:42:01;2.72;;;2.42;;
7255;SDS011;3669;49.200;9.242;2023-08-17T07:44:28;3.40;;;2.50;;
7255;SDS011;3669;49.200;9.242;2023-08-17T07:46:57;2.63;;;2.42;;
7255;SDS011;3669;49.200;9.242;2023-08-17T07:49:25;2.92;;;2.40;;
7255;SDS011;3669;49.200;9.242;2023-08-17T07:51:52;2.80;;;2.60;;
7255;SDS011;3669;49.200;9.242;2023-08-17T07:55:37;21.35;;;20.42;;
7255;SDS011;3669;49.200;9.242;2023-08-17T07:58:04;18.95;;;17.85;;
7255;SDS011;3669;49.200;9.242;2023-08-17T08:00:32;16.02;;;15.07;;
7255;SDS011;3669;49.200;9.242;2023-08-17T08:02:59;5.57;;;5.22;;
7255;SDS011;3669;49.200;9.242;2023-08-17T08:05:25;3.03;;;2.75;;
7255;SDS011;3669;49.200;9.242;2023-08-17T08:07:52;2.90;;;2.50;;
7255;SDS011;3669;49.200;9.242;2023-08-17T08:10:19;2.55;;;2.35;;
7255;SDS011;3669;49.200;9.242;2023-08-17T08:12:46;2.45;;;2.25;;
7255;SDS011;3669;49.200;9.242;2023-08-17T08:15:13;2.75;;;2.55;;
7255;SDS011;3669;49.200;9.242;2023-08-17T08:17:41;3.58;;;2.60;;
7255;SDS011;3669;49.200;9.242;2023-08-17T08:20:08;3.25;;;2.30;;
7255;SDS011;3669;49.200;9.242;2023-08-17T08:22:35;2.88;;;2.67;;
7255;SDS011;3669;49.200;9.242;2023-08-17T08:25:02;3.80;;;2.65;;
7255;SDS011;3669;49.200;9.242;2023-08-17T08:27:29;3.13;;;2.72;;
7255;SDS011;3669;49.200;9.242;2023-08-17T08:29:56;3.45;;;2.78;;
7255;SDS011;3669;49.200;9.242;2023-08-17T08:32:23;3.45;;;2.90;;
7255;SDS011;3669;49.200;9.242;2023-08-17T08:34:50;3.17;;;2.97;;
7255;SDS011;3669;49.200;9.242;2023-08-17T08:37:18;3.25;;;2.95;;
7255;SDS011;3669;49.200;9.242;2023-08-17T08:39:49;3.67;;;3.10;;
7255;SDS011;3669;49.200;9.242;2023-08-17T08:42:20;3.30;;;3.00;;
7255;SDS011;3669;49.200;9.242;2023-08-17T08:44:47;3.45;;;3.15;;
7255;SDS011;3669;49.200;9.242;2023-08-17T08:47:14;3.60;;;3.30;;
7255;SDS011;3669;49.200;9.242;2023-08-17T08:50:00;3.90;;;3.60;;
7255;SDS011;3669;49.200;9.242;2023-08-17T08:52:47;3.67;;;3.38;;
7255;SDS011;3669;49.200;9.242;2023-08-17T08:55:18;3.80;;;3.35;;
7255;SDS011;3669;49.200;9.242;2023-08-17T08:57:46;4.40;;;3.60;;
7255;SDS011;3669;49.200;9.242;2023-08-17T09:00:15;3.80;;;3.50;;
7255;SDS011;3669;49.200;9.242;2023-08-17T09:02:43;3.72;;;3.42;;
7255;SDS011;3669;49.200;9.242;2023-08-17T09:05:10;3.70;;;3.40;;
7255;SDS011;3669;49.200;9.242;2023-08-17T09:07:38;3.92;;;3.53;;
7255;SDS011;3669;49.200;9.242;2023-08-17T09:10:05;4.28;;;3.97;;
7255;SDS011;3669;49.200;9.242;2023-08-17T09:12:33;4.32;;;3.85;;
7255;SDS011;3669;49.200;9.242;2023-08-17T09:15:00;4.05;;;3.60;;
7255;SDS011;3669;49.200;9.242;2023-08-17T09:17:27;4.20;;;3.90;;
7255;SDS011;3669;49.200;9.242;2023-08-17T09:19:54;5.32;;;4.50;;
7255;SDS011;3669;49.200;9.242;2023-08-17T09:22:25;5.28;;;4.50;;
7255;SDS011;3669;49.200;9.242;2023-08-17T09:24:53;5.30;;;4.47;;
7255;SDS011;3669;49.200;9.242;2023-08-17T09:27:20;4.78;;;4.38;;
7255;SDS011;3669;49.200;9.242;2023-08-17T09:29:47;5.07;;;4.47;;
7255;SDS011;3669;49.200;9.242;2023-08-17T09:32:14;4.80;;;4.40;;
7255;SDS011;3669;49.200;9.242;2023-08-17T09:34:43;5.40;;;4.45;;
7255;SDS011;3669;49.200;9.242;2023-08-17T09:37:11;5.05;;;4.55;;
7255;SDS011;3669;49.200;9.242;2023-08-17T09:39:39;4.88;;;4.38;;
7255;SDS011;3669;49.200;9.242;2023-08-17T09:42:06;5.07;;;4.57;;
7255;SDS011;3669;49.200;9.242;2023-08-17T09:44:33;4.97;;;4.57;;
7255;SDS011;3669;49.200;9.242;2023-08-17T09:47:01;5.95;;;5.03;;
7255;SDS011;3669;49.200;9.242;2023-08-17T09:49:30;7.82;;;5.05;;
7255;SDS011;3669;49.200;9.242;2023-08-17T09:51:59;4.85;;;4.45;;
7255;SDS011;3669;49.200;9.242;2023-08-17T09:54:27;5.50;;;5.00;;
7255;SDS011;3669;49.200;9.242;2023-08-17T09:58:44;13.50;;;12.73;;
7255;SDS011;3669;49.200;9.242;2023-08-17T10:01:10;9.65;;;8.95;;
7255;SDS011;3669;49.200;9.242;2023-08-17T10:03:39;5.72;;;5.20;;
7255;SDS011;3669;49.200;9.242;2023-08-17T10:06:09;6.35;;;5.47;;
7255;SDS011;3669;49.200;9.242;2023-08-17T10:08:39;6.10;;;5.60;;
7255;SDS011;3669;49.200;9.242;2023-08-17T10:11:09;6.28;;;5.78;;
7255;SDS011;3669;49.200;9.242;2023-08-17T10:13:46;5.80;;;5.35;;
7255;SDS011;3669;49.200;9.242;2023-08-17T10:16:28;5.57;;;5.07;;
7255;SDS011;3669;49.200;9.242;2023-08-17T10:21:48;6.10;;;5.60;;
7255;SDS011;3669;49.200;9.242;2023-08-17T10:24:17;7.13;;;5.65;;
7255;SDS011;3669;49.200;9.242;2023-08-17T10:26:45;6.40;;;5.80;;
7255;SDS011;3669;49.200;9.242;2023-08-17T10:29:13;7.47;;;6.65;;
7255;SDS011;3669;49.200;9.242;2023-08-17T10:31:40;5.80;;;5.30;;
7255;SDS011;3669;49.200;9.242;2023-08-17T10:34:13;6.35;;;5.75;;
7255;SDS011;3669;49.200;9.242;2023-08-17T10:36:41;7.55;;;5.50;;
7255;SDS011;3669;49.200;9.242;2023-08-17T10:39:22;6.47;;;5.88;;
7255;SDS011;3669;49.200;9.242;2023-08-17T10:41:49;6.53;;;5.93;;
7255;SDS011;3669;49.200;9.242;2023-08-17T10:44:18;6.57;;;6.07;;
7255;SDS011;3669;49.200;9.242;2023-08-17T10:46:45;6.38;;;5.80;;
7255;SDS011;3669;49.200;9.242;2023-08-17T10:50:06;25.33;;;24.10;;
7255;SDS011;3669;49.200;9.242;2023-08-17T10:52:33;12.20;;;11.40;;
7255;SDS011;3669;49.200;9.242;2023-08-17T10:55:02;6.40;;;5.90;;
7255;SDS011;3669;49.200;9.242;2023-08-17T10:57:36;6.68;;;6.07;;
7255;SDS011;3669;49.200;9.242;2023-08-17T11:02:40;7.13;;;6.40;;
7255;SDS011;3669;49.200;9.242;2023-08-17T11:05:07;6.50;;;5.90;;
7255;SDS011;3669;49.200;9.242;2023-08-17T11:07:41;6.82;;;6.22;;
7255;SDS011;3669;49.200;9.242;2023-08-17T11:12:47;6.85;;;6.25;;
7255;SDS011;3669;49.200;9.242;2023-08-17T11:15:14;6.80;;;6.20;;
7255;SDS011;3669;49.200;9.242;2023-08-17T11:17:41;6.93;;;6.32;;
7255;SDS011;3669;49.200;9.242;2023-08-17T11:20:08;7.82;;;6.43;;
7255;SDS011;3669;49.200;9.242;2023-08-17T11:22:36;6.80;;;6.20;;
7255;SDS011;3669;49.200;9.242;2023-08-17T11:25:03;6.93;;;6.32;;
7255;SDS011;3669;49.200;9.242;2023-08-17T11:27:30;7.78;;;7.10;;
7255;SDS011;3669;49.200;9.242;2023-08-17T11:29:58;8.02;;;6.78;;
7255;SDS011;3669;49.200;9.242;2023-08-17T11:32:25;7.15;;;6.47;;
7255;SDS011;3669;49.200;9.242;2023-08-17T11:34:52;7.50;;;6.80;;
7255;SDS011;3669;49.200;9.242;2023-08-17T11:37:33;7.07;;;6.57;;
7255;SDS011;3669;49.200;9.242;2023-08-17T11:40:00;7.03;;;6.32;;
7255;SDS011;3669;49.200;9.242;2023-08-17T11:42:27;7.50;;;6.80;;
7255;SDS011;3669;49.200;9.242;2023-08-17T11:44:54;7.13;;;6.47;;
7255;SDS011;3669;49.200;9.242;2023-08-17T11:47:21;7.63;;;6.68;;
7255;SDS011;3669;49.200;9.242;2023-08-17T11:49:48;7.38;;;6.78;;
7255;SDS011;3669;49.200;9.242;2023-08-17T11:52:15;7.30;;;6.60;;
7255;SDS011;3669;49.200;9.242;2023-08-17T11:54:43;7.68;;;6.88;;
7255;SDS011;3669;49.200;9.242;2023-08-17T11:57:10;7.28;;;6.68;;
7255;SDS011;3669;49.200;9.242;2023-08-17T11:59:37;7.28;;;6.57;;
7255;SDS011;3669;49.200;9.242;2023-08-17T12:02:05;7.85;;;7.05;;
7255;SDS011;3669;49.200;9.242;2023-08-17T12:04:32;6.72;;;6.22;;
7255;SDS011;3669;49.200;9.242;2023-08-17T12:06:59;7.40;;;6.72;;
7255;SDS011;3669;49.200;9.242;2023-08-17T12:09:26;7.20;;;6.53;;
7255;SDS011;3669;49.200;9.242;2023-08-17T12:12:00;7.80;;;7.10;;
7255;SDS011;3669;49.200;9.242;2023-08-17T12:14:27;7.00;;;6.40;;
7255;SDS011;3669;49.200;9.242;2023-08-17T12:16:54;6.82;;;5.82;;
7255;SDS011;3669;49.200;9.242;2023-08-17T12:19:22;6.90;;;6.22;;
7255;SDS011;3669;49.200;9.242;2023-08-17T12:21:51;7.03;;;6.38;;
7255;SDS011;3669;49.200;9.242;2023-08-17T12:24:18;7.20;;;6.60;;
7255;SDS011;3669;49.200;9.242;2023-08-17T12:26:46;6.85;;;6.25;;
7255;SDS011;3669;49.200;9.242;2023-08-17T12:29:13;7.82;;;7.13;;
7255;SDS011;3669;49.200;9.242;2023-08-17T12:31:40;6.82;;;6.32;;
7255;SDS011;3669;49.200;9.242;2023-08-17T12:34:07;7.15;;;6.38;;
7255;SDS011;3669;49.200;9.242;2023-08-17T12:36:34;6.82;;;6.32;;
7255;SDS011;3669;49.200;9.242;2023-08-17T12:39:03;6.85;;;6.18;;
7255;SDS011;3669;49.200;9.242;2023-08-17T12:41:31;7.05;;;6.45;;
7255;SDS011;3669;49.200;9.242;2023-08-17T12:43:58;15.02;;;14.02;;
7255;SDS011;3669;49.200;9.242;2023-08-17T12:46:26;18.85;;;17.63;;
7255;SDS011;3669;49.200;9.242;2023-08-17T12:48:53;23.52;;;22.17;;
7255;SDS011;3669;49.200;9.242;2023-08-17T12:51:20;24.83;;;23.58;;
7255;SDS011;3669;49.200;9.242;2023-08-17T12:53:47;20.13;;;18.80;;
7255;SDS011;3669;49.200;9.242;2023-08-17T12:56:14;21.90;;;20.70;;
7255;SDS011;3669;49.200;9.242;2023-08-17T12:58:41;11.57;;;10.73;;
7255;SDS011;3669;49.200;9.242;2023-08-17T13:01:08;7.28;;;6.75;;
7255;SDS011;3669;49.200;9.242;2023-08-17T13:03:35;14.55;;;13.75;;
7255;SDS011;3669;49.200;9.242;2023-08-17T13:06:02;6.35;;;5.75;;
7255;SDS011;3669;49.200;9.242;2023-08-17T13:08:29;5.95;;;5.45;;
7255;SDS011;3669;49.200;9.242;2023-08-17T13:10:56;5.47;;;5.07;;
7255;SDS011;3669;49.200;9.242;2023-08-17T13:13:23;5.63;;;5.22;;
7255;SDS011;3669;49.200;9.242;2023-08-17T13:15:50;5.63;;;5.20;;
7255;SDS011;3669;49.200;9.242;2023-08-17T13:18:17;5.45;;;5.05;;
7255;SDS011;3669;49.200;9.242;2023-08-17T13:20:44;5.72;;;5.30;;
7255;SDS011;3669;49.200;9.242;2023-08-17T13:23:11;5.50;;;5.00;;
7255;SDS011;3669;49.200;9.242;2023-08-17T13:25:39;5.90;;;5.40;;
7255;SDS011;3669;49.200;9.242;2023-08-17T13:28:06;5.22;;;4.82;;
7255;SDS011;3669;49.200;9.242;2023-08-17T13:30:33;5.93;;;5.43;;
7255;SDS011;3669;49.200;9.242;2023-08-17T13:33:00;5.57;;;5.15;;
7255;SDS011;3669;49.200;9.242;2023-08-17T13:35:27;7.43;;;6.90;;
7255;SDS011;3669;49.200;9.242;2023-08-17T13:37:54;5.13;;;4.72;;
7255;SDS011;3669;49.200;9.242;2023-08-17T13:40:23;5.20;;;4.72;;
7255;SDS011;3669;49.200;9.242;2023-08-17T13:42:50;4.95;;;4.57;;
7255;SDS011;3669;49.200;9.242;2023-08-17T13:45:17;5.20;;;4.70;;
7255;SDS011;3669;49.200;9.242;2023-08-17T13:47:44;5.40;;;4.93;;
7255;SDS011;3669;49.200;9.242;2023-08-17T13:50:11;5.07;;;4.68;;
7255;SDS011;3669;49.200;9.242;2023-08-17T13:52:39;5.60;;;5.20;;
7255;SDS011;3669;49.200;9.242;2023-08-17T13:55:06;5.82;;;4.90;;
7255;SDS011;3669;49.200;9.242;2023-08-17T13:57:33;4.95;;;4.55;;
7255;SDS011;3669;49.200;9.242;2023-08-17T14:00:00;5.50;;;5.00;;
7255;SDS011;3669;49.200;9.242;2023-08-17T14:02:27;4.40;;;4.07;;
7255;SDS011;3669;49.200;9.242;2023-08-17T14:04:54;4.93;;;4.45;;
7255;SDS011;3669;49.200;9.242;2023-08-17T14:07:21;5.25;;;4.85;;
7255;SDS011;3669;49.200;9.242;2023-08-17T14:09:48;5.63;;;5.00;;
7255;SDS011;3669;49.200;9.242;2023-08-17T14:12:15;5.13;;;4.72;;
7255;SDS011;3669;49.200;9.242;2023-08-17T14:14:42;4.95;;;4.55;;
7255;SDS011;3669;49.200;9.242;2023-08-17T14:17:09;5.65;;;5.15;;
7255;SDS011;3669;49.200;9.242;2023-08-17T14:19:37;5.38;;;4.97;;
7255;SDS011;3669;49.200;9.242;2023-08-17T14:22:04;5.68;;;5.25;;
7255;SDS011;3669;49.200;9.242;2023-08-17T14:24:31;4.95;;;4.55;;
7255;SDS011;3669;49.200;9.242;2023-08-17T14:26:58;5.47;;;5.00;;
7255;SDS011;3669;49.200;9.242;2023-08-17T14:29:25;5.75;;;5.05;;
7255;SDS011;3669;49.200;9.242;2023-08-17T14:31:52;4.65;;;4.25;;
7255;SDS011;3669;49.200;9.242;2023-08-17T14:34:19;5.13;;;4.63;;
7255;SDS011;3669;49.200;9.242;2023-08-17T14:36:47;5.55;;;5.00;;
7255;SDS011;3669;49.200;9.242;2023-08-17T14:39:14;4.53;;;4.13;;
7255;SDS011;3669;49.200;9.242;2023-08-17T14:41:41;5.10;;;4.70;;
7255;SDS011;3669;49.200;9.242;2023-08-17T14:44:08;4.63;;;4.32;;
7255;SDS011;3669;49.200;9.242;2023-08-17T14:46:35;5.18;;;4.78;;
7255;SDS011;3669;49.200;9.242;2023-08-17T14:49:04;4.78;;;4.38;;
7255;SDS011;3669;49.200;9.242;2023-08-17T14:51:36;4.63;;;4.22;;
7255;SDS011;3669;49.200;9.242;2023-08-17T14:54:04;4.80;;;4.40;;
7255;SDS011;3669;49.200;9.242;2023-08-17T14:56:31;5.10;;;4.70;;
7255;SDS011;3669;49.200;9.242;2023-08-17T14:58:58;5.57;;;5.13;;
7255;SDS011;3669;49.200;9.242;2023-08-17T15:01:25;13.55;;;12.63;;
7255;SDS011;3669;49.200;9.242;2023-08-17T15:03:52;9.90;;;9.25;;
7255;SDS011;3669;49.200;9.242;2023-08-17T15:06:19;16.63;;;15.70;;
7255;SDS011;3669;49.200;9.242;2023-08-17T15:08:50;21.55;;;20.38;;
7255;SDS011;3669;49.200;9.242;2023-08-17T15:11:17;28.23;;;26.73;;
7255;SDS011;3669;49.200;9.242;2023-08-17T15:13:44;21.58;;;20.30;;
7255;SDS011;3669;49.200;9.242;2023-08-17T15:16:11;21.92;;;20.58;;
7255;SDS011;3669;49.200;9.242;2023-08-17T15:18:38;15.73;;;14.82;;
7255;SDS011;3669;49.200;9.242;2023-08-17T15:21:05;8.88;;;8.30;;
7255;SDS011;3669;49.200;9.242;2023-08-17T15:23:31;7.50;;;6.88;;
7255;SDS011;3669;49.200;9.242;2023-08-17T15:25:58;6.03;;;5.53;;
7255;SDS011;3669;49.200;9.242;2023-08-17T15:28:25;5.20;;;4.72;;
7255;SDS011;3669;49.200;9.242;2023-08-17T15:31:00;5.88;;;5.32;;
7255;SDS011;3669;49.200;9.242;2023-08-17T15:33:28;6.15;;;5.18;;
7255;SDS011;3669;49.200;9.242;2023-08-17T15:35:55;6.25;;;4.70;;
7255;SDS011;3669;49.200;9.242;2023-08-17T15:38:27;5.30;;;4.72;;